createdAt,value
2022-08-05T00:01:48.485Z,25.80
2022-08-05T00:04:18.261Z,25.80
2022-08-05T00:06:51.692Z,25.90
2022-08-05T00:09:20.339Z,25.70
2022-08-05T00:11:49.362Z,25.80
2022-08-05T00:14:27.722Z,25.80
2022-08-05T00:16:57.971Z,25.80
2022-08-05T00:19:33.445Z,25.80
2022-08-05T00:22:02.251Z,25.80
2022-08-05T00:24:31.207Z,25.80
2022-08-05T00:26:59.836Z,25.80
2022-08-05T00:29:38.136Z,25.60
2022-08-05T00:32:13.436Z,25.50
2022-08-05T00:35:04.581Z,25.40
2022-08-05T00:37:35.460Z,25.30
2022-08-05T00:40:28.142Z,25.20
2022-08-05T00:42:59.232Z,25.20
2022-08-05T00:45:43.138Z,25.30
2022-08-05T00:48:14.004Z,25.10
2022-08-05T00:50:46.068Z,25.10
2022-08-05T00:54:00.867Z,25.00
2022-08-05T00:56:04.449Z,25.00
2022-08-05T00:58:32.601Z,24.80
2022-08-05T01:01:01.968Z,24.70
2022-08-05T01:03:36.887Z,24.70
2022-08-05T01:06:05.628Z,24.60
2022-08-05T01:08:42.935Z,24.70
2022-08-05T01:11:24.173Z,24.60
2022-08-05T01:14:10.946Z,24.60
2022-08-05T01:16:55.568Z,24.60
2022-08-05T01:20:00.784Z,24.60
2022-08-05T01:22:46.935Z,24.50
2022-08-05T01:25:58.960Z,24.60
2022-08-05T01:28:36.573Z,24.60
2022-08-05T01:31:16.190Z,24.60
2022-08-05T01:33:54.021Z,24.70
2022-08-05T01:36:32.029Z,24.70
2022-08-05T01:39:01.971Z,24.70
2022-08-05T01:41:36.600Z,24.70
2022-08-05T01:44:09.970Z,24.70
2022-08-05T01:46:46.516Z,24.60
2022-08-05T01:49:22.947Z,24.70
2022-08-05T01:51:59.621Z,24.70
2022-08-05T01:54:52.050Z,24.60
2022-08-05T01:58:12.558Z,24.50
2022-08-05T02:00:17.506Z,24.40
2022-08-05T02:02:55.004Z,24.30
2022-08-05T02:05:31.349Z,24.30
2022-08-05T02:08:03.321Z,24.20
2022-08-05T02:10:40.493Z,24.30
2022-08-05T02:13:16.920Z,24.30
2022-08-05T02:15:54.840Z,24.20
2022-08-05T02:18:35.260Z,24.10
2022-08-05T02:21:15.112Z,24.10
2022-08-05T02:23:58.073Z,24.00
2022-08-05T02:26:36.939Z,24.10
2022-08-05T02:29:07.959Z,24.00
2022-08-05T02:31:54.833Z,24.00
2022-08-05T02:34:25.933Z,24.10
2022-08-05T02:37:04.367Z,24.00
2022-08-05T02:39:41.107Z,24.10
2022-08-05T02:42:11.706Z,24.00
2022-08-05T02:44:55.371Z,24.00
2022-08-05T02:48:07.531Z,24.10
2022-08-05T02:50:18.122Z,24.00
2022-08-05T02:52:48.220Z,24.00
2022-08-05T02:55:17.763Z,24.00
2022-08-05T02:58:09.882Z,24.00
2022-08-05T03:00:44.066Z,23.90
2022-08-05T03:03:19.864Z,23.90
2022-08-05T03:06:54.660Z,23.90
2022-08-05T03:08:43.157Z,23.90
2022-08-05T03:11:57.200Z,23.90
2022-08-05T03:14:08.024Z,23.90
2022-08-05T03:16:36.485Z,23.80
2022-08-05T03:19:16.870Z,23.80
2022-08-05T03:21:48.741Z,23.90
2022-08-05T03:24:29.341Z,23.90
2022-08-05T03:26:59.133Z,24.00
2022-08-05T03:29:45.692Z,24.00
2022-08-05T03:32:17.095Z,24.00
2022-08-05T03:34:51.251Z,24.00
2022-08-05T03:37:21.308Z,24.10
2022-08-05T03:40:01.576Z,24.10
2022-08-05T03:42:41.451Z,24.10
2022-08-05T03:45:21.880Z,24.20
2022-08-05T03:47:51.502Z,24.20
2022-08-05T03:50:21.829Z,24.10
2022-08-05T03:55:54.207Z,24.10
2022-08-05T03:56:10.329Z,24.10
2022-08-05T03:58:51.217Z,24.00
2022-08-05T04:01:23.677Z,24.00
2022-08-05T04:04:05.352Z,24.00
2022-08-05T04:06:47.896Z,24.10
2022-08-05T04:09:20.194Z,24.00
2022-08-05T04:11:54.345Z,24.10
2022-08-05T04:14:30.054Z,24.20
2022-08-05T04:17:02.872Z,24.20
2022-08-05T04:19:31.967Z,24.20
2022-08-05T04:22:09.957Z,24.20
2022-08-05T04:24:44.458Z,24.20
2022-08-05T04:27:13.925Z,24.30
2022-08-05T04:29:43.739Z,24.30
2022-08-05T04:32:11.918Z,24.30
2022-08-05T04:34:43.131Z,24.30
2022-08-05T04:37:12.942Z,24.30
2022-08-05T04:39:41.013Z,24.30
2022-08-05T04:42:10.206Z,24.20
2022-08-05T04:44:38.846Z,24.20
2022-08-05T04:47:09.082Z,24.30
2022-08-05T04:50:01.485Z,24.30
2022-08-05T04:52:29.163Z,24.40
2022-08-05T04:55:14.388Z,24.50
2022-08-05T04:57:47.915Z,24.60
2022-08-05T05:00:23.258Z,24.60
2022-08-05T05:02:52.245Z,24.70
2022-08-05T05:05:28.856Z,24.70
2022-08-05T05:08:03.048Z,24.80
2022-08-05T05:10:33.431Z,24.70
2022-08-05T05:13:04.407Z,24.80
2022-08-05T05:15:56.568Z,24.70
2022-08-05T05:18:31.441Z,24.80
2022-08-05T05:21:02.120Z,24.70
2022-08-05T05:23:39.247Z,24.70
2022-08-05T05:26:28.309Z,24.80
2022-08-05T05:29:02.275Z,24.70
2022-08-05T05:34:02.053Z,24.70
2022-08-05T05:36:31.529Z,24.40
2022-08-05T05:39:03.578Z,24.40
2022-08-05T05:41:40.030Z,24.40
2022-08-05T05:44:37.734Z,24.50
2022-08-05T05:46:57.964Z,24.50
2022-08-05T05:49:26.287Z,24.60
2022-08-05T05:51:54.894Z,24.60
2022-08-05T05:54:50.299Z,24.50
2022-08-05T05:57:13.885Z,24.70
2022-08-05T05:59:47.784Z,24.70
2022-08-05T06:02:32.904Z,24.70
2022-08-05T06:05:13.944Z,24.70
2022-08-05T06:07:57.992Z,24.70
2022-08-05T06:10:36.384Z,24.70
2022-08-05T06:13:05.275Z,24.80
2022-08-05T06:16:31.610Z,24.70
2022-08-05T06:18:22.045Z,24.80
2022-08-05T06:20:59.785Z,24.90
2022-08-05T06:23:27.693Z,25.00
2022-08-05T06:26:21.183Z,25.00
2022-08-05T06:28:51.936Z,25.10
2022-08-05T06:31:21.911Z,25.20
2022-08-05T06:34:07.998Z,25.30
2022-08-05T06:36:56.661Z,25.30
2022-08-05T06:39:27.338Z,25.40
2022-08-05T06:41:58.879Z,25.20
2022-08-05T06:44:27.327Z,25.40
2022-08-05T06:46:55.823Z,25.40
2022-08-05T06:50:00.251Z,25.50
2022-08-05T06:52:36.629Z,25.50
2022-08-05T06:55:02.381Z,25.50
2022-08-05T06:58:03.027Z,25.60
2022-08-05T07:00:22.092Z,25.70
2022-08-05T07:02:53.910Z,25.70
2022-08-05T07:05:37.494Z,25.70
2022-08-05T07:08:10.986Z,25.70
2022-08-05T07:10:52.719Z,25.70
2022-08-05T07:13:58.014Z,25.70
2022-08-05T07:18:00.372Z,25.60
2022-08-05T07:22:27.808Z,25.30
2022-08-05T07:24:59.627Z,25.40
2022-08-05T07:27:57.251Z,25.50
2022-08-05T07:30:38.893Z,25.50
2022-08-05T07:33:10.575Z,25.70
2022-08-05T07:36:03.791Z,25.80
2022-08-05T07:38:42.620Z,26.00
2022-08-05T07:42:13.898Z,25.80
2022-08-05T07:44:18.477Z,25.90
2022-08-05T07:46:50.407Z,26.10
2022-08-05T07:49:19.484Z,26.30
2022-08-05T07:51:53.334Z,26.40
2022-08-05T07:54:31.112Z,26.50
2022-08-05T07:57:17.834Z,26.20
2022-08-05T07:59:50.910Z,26.30
2022-08-05T08:02:30.864Z,26.30
2022-08-05T08:05:01.541Z,26.60
2022-08-05T08:07:39.704Z,26.80
2022-08-05T08:10:20.511Z,26.90
2022-08-05T08:12:49.694Z,27.00
2022-08-05T08:15:37.320Z,27.10
2022-08-05T08:18:14.300Z,27.30
2022-08-05T08:21:01.795Z,27.50
2022-08-05T08:24:01.160Z,27.70
2022-08-05T08:26:26.976Z,27.80
2022-08-05T08:29:22.013Z,28.00
2022-08-05T08:31:47.129Z,28.20
2022-08-05T08:34:18.762Z,27.80
2022-08-05T08:37:04.851Z,27.90
2022-08-05T08:39:37.424Z,27.90
2022-08-05T08:42:35.469Z,28.10
2022-08-05T08:45:20.397Z,28.30
2022-08-05T08:48:07.375Z,28.60
2022-08-05T08:51:03.751Z,28.80
2022-08-05T08:53:37.667Z,29.00
2022-08-05T08:56:08.794Z,29.10
2022-08-05T08:58:44.345Z,29.30
2022-08-05T09:01:16.687Z,29.30
2022-08-05T09:03:48.340Z,29.50
2022-08-05T09:06:29.249Z,29.50
2022-08-05T09:09:01.068Z,29.70
2022-08-05T09:11:53.354Z,29.80
2022-08-05T09:14:58.319Z,29.90
2022-08-05T09:17:40.967Z,30.00
2022-08-05T09:20:02.359Z,30.20
2022-08-05T09:23:07.729Z,30.40
2022-08-05T09:25:59.932Z,30.40
2022-08-05T09:28:31.906Z,30.50
2022-08-05T09:31:43.534Z,30.70
2022-08-05T09:33:59.686Z,30.90
2022-08-05T09:36:54.593Z,30.50
2022-08-05T09:39:41.215Z,30.20
2022-08-05T09:42:24.002Z,29.80
2022-08-05T09:45:17.814Z,30.10
2022-08-05T09:47:55.099Z,30.40
2022-08-05T09:50:38.503Z,30.50
2022-08-05T09:53:22.921Z,30.60
2022-08-05T09:56:04.745Z,30.80
2022-08-05T09:58:33.028Z,31.10
2022-08-05T10:01:13.485Z,31.10
2022-08-05T10:04:00.090Z,31.30
2022-08-05T10:06:30.920Z,31.60
2022-08-05T10:09:24.959Z,31.80
2022-08-05T10:12:30.391Z,31.90
2022-08-05T10:15:20.178Z,31.60
2022-08-05T10:18:14.636Z,31.50
2022-08-05T10:20:49.482Z,31.60
2022-08-05T10:23:34.443Z,31.60
2022-08-05T10:26:14.443Z,31.70
2022-08-05T10:28:46.313Z,31.80
2022-08-05T10:32:48.937Z,31.90
2022-08-05T10:34:07.201Z,31.60
2022-08-05T10:36:38.193Z,31.60
2022-08-05T10:39:15.192Z,31.70
2022-08-05T10:42:01.835Z,31.80
2022-08-05T10:44:33.549Z,32.10
2022-08-05T10:47:26.189Z,32.40
2022-08-05T10:50:31.659Z,32.40
2022-08-05T10:52:58.512Z,32.20
2022-08-05T10:55:28.565Z,31.80
2022-08-05T10:58:11.567Z,31.30
2022-08-05T11:00:55.227Z,31.40
2022-08-05T11:03:29.251Z,31.70
2022-08-05T11:06:15.931Z,32.10
2022-08-05T11:09:39.535Z,31.90
2022-08-05T11:12:50.792Z,31.70
2022-08-05T11:15:59.575Z,31.80
2022-08-05T11:18:29.691Z,32.10
2022-08-05T11:20:59.075Z,32.10
2022-08-05T11:24:02.742Z,31.60
2022-08-05T11:26:28.484Z,31.60
2022-08-05T11:29:12.221Z,31.60
2022-08-05T11:31:58.204Z,31.80
2022-08-05T11:34:51.525Z,31.80
2022-08-05T11:38:28.357Z,31.80
2022-08-05T11:41:14.104Z,31.90
2022-08-05T11:44:06.062Z,32.50
2022-08-05T11:46:58.682Z,32.90
2022-08-05T11:49:26.738Z,32.90
2022-08-05T11:51:57.619Z,32.90
2022-08-05T11:54:32.677Z,32.90
2022-08-05T11:57:08.819Z,32.50
2022-08-05T11:59:52.727Z,32.60
2022-08-05T12:02:31.510Z,32.30
2022-08-05T12:05:07.292Z,32.30
2022-08-05T12:08:08.029Z,32.20
2022-08-05T12:10:45.015Z,31.90
2022-08-05T12:13:27.660Z,31.80
2022-08-05T12:16:15.013Z,31.80
2022-08-05T12:18:53.144Z,31.80
2022-08-05T12:21:24.999Z,32.10
2022-08-05T12:24:04.771Z,32.40
2022-08-05T12:26:36.528Z,32.50
2022-08-05T12:29:09.731Z,32.80
2022-08-05T12:31:53.537Z,32.50
2022-08-05T12:34:28.157Z,31.80
2022-08-05T12:36:58.807Z,31.70
2022-08-05T12:39:34.483Z,31.70
2022-08-05T12:42:14.692Z,31.60
2022-08-05T12:44:45.263Z,31.70
2022-08-05T12:47:17.241Z,31.50
2022-08-05T12:50:04.622Z,31.50
2022-08-05T12:52:41.551Z,31.50
2022-08-05T12:55:25.508Z,31.30
2022-08-05T12:58:51.068Z,31.20
2022-08-05T13:02:03.141Z,31.50
2022-08-05T13:03:43.223Z,31.80
2022-08-05T13:06:25.642Z,32.00
2022-08-05T13:08:59.179Z,32.00
2022-08-05T13:12:01.747Z,32.00
2022-08-05T13:14:36.214Z,32.00
2022-08-05T13:17:20.509Z,32.00
2022-08-05T13:20:02.089Z,32.10
2022-08-05T13:22:31.301Z,32.10
2022-08-05T13:25:08.019Z,32.30
2022-08-05T13:27:52.135Z,31.90
2022-08-05T13:30:36.836Z,31.90
2022-08-05T13:33:07.472Z,32.00
2022-08-05T13:35:47.406Z,32.10
2022-08-05T13:38:30.610Z,32.20
2022-08-05T13:41:00.292Z,32.00
2022-08-05T13:43:45.689Z,32.10
2022-08-05T13:46:35.845Z,32.20
2022-08-05T13:49:10.052Z,32.40
2022-08-05T13:51:41.541Z,32.40
2022-08-05T13:54:12.028Z,32.60
2022-08-05T13:56:50.457Z,32.60
2022-08-05T13:59:24.167Z,32.20
2022-08-05T14:01:59.203Z,32.10
2022-08-05T14:04:49.803Z,32.30
2022-08-05T14:07:25.439Z,32.60
2022-08-05T14:10:14.185Z,32.60
2022-08-05T14:12:48.913Z,32.40
2022-08-05T14:16:04.956Z,31.90
2022-08-05T14:18:14.924Z,31.90
2022-08-05T14:20:46.967Z,32.00
2022-08-05T14:23:23.931Z,32.00
2022-08-05T14:25:58.220Z,32.20
2022-08-05T14:28:28.487Z,32.40
2022-08-05T14:30:58.293Z,32.30
2022-08-05T14:33:26.369Z,32.40
2022-08-05T14:35:54.962Z,32.40
2022-08-05T14:38:33.366Z,32.60
2022-08-05T14:41:07.869Z,32.70
2022-08-05T14:43:57.647Z,32.60
2022-08-05T14:46:29.810Z,32.80
2022-08-05T14:49:06.556Z,32.70
2022-08-05T14:51:37.587Z,32.70
2022-08-05T14:54:30.105Z,32.80
2022-08-05T14:56:54.938Z,32.80
2022-08-05T14:59:23.264Z,32.70
2022-08-05T15:01:53.634Z,32.60
2022-08-05T15:04:23.039Z,32.50
2022-08-05T15:06:55.236Z,32.30
2022-08-05T15:09:51.645Z,32.20
2022-08-05T15:12:16.757Z,32.20
2022-08-05T15:14:50.312Z,32.30
2022-08-05T15:17:46.256Z,32.30
2022-08-05T15:20:15.610Z,32.30
2022-08-05T15:22:54.061Z,32.10
2022-08-05T15:25:41.121Z,32.00
2022-08-05T15:28:14.833Z,31.80
2022-08-05T15:30:46.230Z,31.70
2022-08-05T15:33:56.562Z,31.70
2022-08-05T15:36:16.659Z,31.60
2022-08-05T15:38:46.849Z,31.60
2022-08-05T15:41:21.428Z,31.70
2022-08-05T15:43:51.692Z,31.60
2022-08-05T15:46:21.507Z,31.60
2022-08-05T15:49:01.014Z,31.60
2022-08-05T15:52:09.997Z,31.50
2022-08-05T15:54:34.577Z,31.40
2022-08-05T15:57:03.520Z,31.20
2022-08-05T15:59:35.783Z,31.20
2022-08-05T16:02:03.799Z,31.20
2022-08-05T16:04:39.153Z,31.20
2022-08-05T16:07:10.791Z,31.30
2022-08-05T16:09:41.726Z,31.50
2022-08-05T16:12:11.422Z,31.50
2022-08-05T16:14:40.062Z,31.70
2022-08-05T16:17:08.051Z,31.80
2022-08-05T16:20:05.399Z,31.70
2022-08-05T16:22:33.744Z,31.50
2022-08-05T16:25:07.911Z,31.20
2022-08-05T16:28:00.016Z,31.00
2022-08-05T16:30:28.785Z,31.00
2022-08-05T16:32:58.397Z,31.20
2022-08-05T16:35:32.197Z,31.30
2022-08-05T16:38:15.096Z,31.40
2022-08-05T16:40:51.953Z,31.40
2022-08-05T16:43:25.154Z,31.40
2022-08-05T16:46:07.011Z,31.30
2022-08-05T16:48:41.096Z,31.20
2022-08-05T16:51:11.172Z,31.10
2022-08-05T16:54:04.019Z,31.00
2022-08-05T16:56:33.583Z,30.90
2022-08-05T16:59:07.571Z,30.70
2022-08-05T17:01:54.454Z,30.60
2022-08-05T17:04:26.152Z,30.50
2022-08-05T17:07:00.225Z,30.30
2022-08-05T17:09:29.833Z,30.10
2022-08-05T17:12:00.052Z,30.00
2022-08-05T17:14:34.122Z,29.90
2022-08-05T17:17:09.458Z,29.80
2022-08-05T17:19:45.324Z,29.80
2022-08-05T17:22:25.009Z,29.70
2022-08-05T17:24:57.822Z,29.50
2022-08-05T17:27:27.639Z,29.30
2022-08-05T17:30:04.883Z,29.00
2022-08-05T17:32:42.191Z,28.70
2022-08-05T17:35:12.136Z,28.40
2022-08-05T17:37:45.395Z,28.30
2022-08-05T17:40:18.775Z,28.20
2022-08-05T17:42:52.924Z,27.90
2022-08-05T17:45:24.852Z,27.70
2022-08-05T17:47:56.268Z,27.50
2022-08-05T17:50:28.204Z,27.30
2022-08-05T17:53:00.815Z,27.20
2022-08-05T17:55:37.638Z,26.90
2022-08-05T17:58:11.070Z,26.60
2022-08-05T18:00:44.572Z,26.30
2022-08-05T18:03:28.152Z,26.00
2022-08-05T18:06:04.901Z,25.80
2022-08-05T18:08:34.848Z,25.50
2022-08-05T18:11:03.796Z,25.40
2022-08-05T18:13:36.829Z,25.10
2022-08-05T18:16:13.942Z,25.00
2022-08-05T18:18:47.834Z,24.90
2022-08-05T18:21:20.100Z,24.90
2022-08-05T18:23:53.677Z,24.70
2022-08-05T18:26:29.332Z,24.60
2022-08-05T18:29:00.100Z,24.30
2022-08-05T18:31:35.231Z,24.20
2022-08-05T18:34:06.179Z,24.10
2022-08-05T18:36:41.257Z,23.90
2022-08-05T18:39:41.794Z,23.90
2022-08-05T18:42:06.352Z,23.80
2022-08-05T18:44:55.441Z,23.70
2022-08-05T18:47:26.823Z,23.70
2022-08-05T18:50:15.676Z,23.50
2022-08-05T18:52:50.753Z,23.40
2022-08-05T18:55:22.303Z,23.30
2022-08-05T18:57:53.853Z,23.30
2022-08-05T19:00:29.169Z,23.20
2022-08-05T19:03:04.274Z,23.20
2022-08-05T19:06:11.485Z,23.10
2022-08-05T19:08:30.668Z,23.10
2022-08-05T19:11:04.680Z,23.10
2022-08-05T19:13:36.672Z,23.10
2022-08-05T19:16:24.569Z,23.10
2022-08-05T19:18:56.696Z,23.00
2022-08-05T19:21:29.391Z,23.00
2022-08-05T19:24:05.320Z,23.00
2022-08-05T19:26:54.723Z,22.90
2022-08-05T19:29:26.706Z,22.90
2022-08-05T19:32:11.223Z,22.70
2022-08-05T19:34:40.069Z,22.60
2022-08-05T19:37:09.929Z,22.50
2022-08-05T19:39:45.866Z,22.40
2022-08-05T19:42:36.139Z,22.30
2022-08-05T19:45:06.449Z,22.30
2022-08-05T19:47:37.436Z,22.40
2022-08-05T19:50:07.826Z,22.40
2022-08-05T19:52:40.213Z,22.40
2022-08-05T19:56:14.353Z,22.40
2022-08-05T19:58:14.541Z,22.30
2022-08-05T20:00:48.370Z,22.30
2022-08-05T20:03:16.467Z,22.30
2022-08-05T20:05:51.312Z,22.30
2022-08-05T20:08:19.961Z,22.30
2022-08-05T20:10:49.605Z,22.30
2022-08-05T20:13:29.823Z,22.30
2022-08-05T20:16:08.024Z,22.30
2022-08-05T20:18:37.292Z,22.30
2022-08-05T20:21:07.540Z,22.30
2022-08-05T20:23:50.114Z,22.00
2022-08-05T20:26:20.601Z,21.80
2022-08-05T20:28:53.794Z,21.60
2022-08-05T20:31:36.950Z,21.50
2022-08-05T20:34:11.715Z,21.30
2022-08-05T20:36:43.011Z,21.20
2022-08-05T20:39:13.071Z,21.20
2022-08-05T20:41:44.148Z,21.20
2022-08-05T20:44:18.488Z,21.10
2022-08-05T20:46:47.907Z,21.10
2022-08-05T20:49:23.937Z,21.10
2022-08-05T20:51:53.373Z,21.10
2022-08-05T20:54:22.295Z,21.10
2022-08-05T20:56:50.257Z,21.10
2022-08-05T20:59:27.006Z,21.10
2022-08-05T21:02:08.532Z,21.10
2022-08-05T21:04:37.460Z,21.20
2022-08-05T21:07:06.314Z,21.20
2022-08-05T21:09:37.180Z,21.20
2022-08-05T21:12:19.780Z,21.20
2022-08-05T21:14:49.213Z,21.30
2022-08-05T21:17:17.842Z,21.20
2022-08-05T21:19:52.001Z,21.00
2022-08-05T21:22:23.441Z,20.80
2022-08-05T21:24:52.757Z,20.70
2022-08-05T21:27:25.189Z,20.70
2022-08-05T21:29:57.123Z,20.70
2022-08-05T21:32:27.584Z,20.70
2022-08-05T21:35:08.958Z,20.70
2022-08-05T21:37:47.357Z,20.70
2022-08-05T21:40:23.107Z,20.70
2022-08-05T21:42:53.635Z,20.70
2022-08-05T21:45:24.239Z,20.70
2022-08-05T21:48:11.899Z,20.70
2022-08-05T21:50:41.854Z,20.70
2022-08-05T21:53:21.282Z,20.60
2022-08-05T21:56:06.116Z,20.60
2022-08-05T21:58:57.057Z,20.50
2022-08-05T22:01:27.543Z,20.40
2022-08-05T22:03:56.200Z,20.40
2022-08-05T22:06:37.054Z,20.40
2022-08-05T22:09:13.140Z,20.40
2022-08-05T22:11:42.251Z,20.30
2022-08-05T22:14:33.263Z,20.20
2022-08-05T22:17:03.959Z,20.00
2022-08-05T22:20:01.418Z,20.00
2022-08-05T22:22:26.936Z,20.00
2022-08-05T22:25:21.608Z,19.90
2022-08-05T22:28:09.151Z,19.80
2022-08-05T22:30:44.352Z,19.60
2022-08-05T22:33:57.944Z,19.50
2022-08-05T22:36:17.033Z,19.30
2022-08-05T22:38:48.343Z,19.20
2022-08-05T22:41:26.487Z,19.10
2022-08-05T22:44:07.905Z,19.20
2022-08-05T22:46:40.196Z,19.20
2022-08-05T22:49:23.307Z,19.10
2022-08-05T22:52:05.558Z,19.00
2022-08-05T22:54:37.594Z,18.90
2022-08-05T22:57:07.662Z,18.80
2022-08-05T22:59:46.423Z,18.80
2022-08-05T23:02:17.496Z,18.80
2022-08-05T23:04:52.348Z,18.80
2022-08-05T23:07:23.110Z,18.80
2022-08-05T23:09:57.954Z,18.70
2022-08-05T23:12:32.894Z,18.70
2022-08-05T23:15:03.426Z,18.70
2022-08-05T23:17:37.667Z,18.50
2022-08-05T23:20:24.405Z,18.20
2022-08-05T23:22:55.954Z,18.20
2022-08-05T23:25:53.200Z,18.30
2022-08-05T23:28:15.860Z,18.40
2022-08-05T23:30:53.117Z,18.50
2022-08-05T23:33:26.352Z,18.50
2022-08-05T23:36:13.609Z,18.50
2022-08-05T23:38:43.503Z,18.60
2022-08-05T23:41:13.006Z,18.50
2022-08-05T23:44:05.623Z,18.50
2022-08-05T23:46:29.849Z,18.50
2022-08-05T23:49:00.999Z,18.50
2022-08-05T23:51:55.892Z,18.50
2022-08-05T23:54:30.439Z,18.30
2022-08-05T23:57:05.876Z,18.30
